createdAt,value
2022-09-05T00:02:55.984Z,62.4
2022-09-05T00:09:54.854Z,62.4
2022-09-05T00:17:40.791Z,62.3
2022-09-05T00:32:45.869Z,62.2
2022-09-05T15:26:07.219Z,67.6
2022-09-05T15:32:26.414Z,67.5
2022-09-05T15:53:28.831Z,67.3
2022-09-05T15:59:43.949Z,67.3
2022-09-05T16:16:35.303Z,67.1
2022-09-05T16:29:43.372Z,67
2022-09-05T16:35:32.802Z,67
2022-09-05T16:41:27.501Z,66.9
2022-09-05T16:47:23.452Z,66.9
2022-09-05T16:54:15.603Z,66.8
2022-09-05T17:00:10.740Z,66.8
2022-09-05T17:06:25.521Z,66.7
2022-09-05T17:12:55.178Z,66.7
2022-09-05T17:19:24.258Z,66.6
2022-09-05T17:35:34.505Z,66.4
2022-09-05T17:41:41.673Z,66.4
2022-09-05T17:47:35.269Z,66.4
2022-09-05T17:54:00.179Z,66.3
2022-09-05T17:59:55.604Z,66.3
2022-09-05T18:05:56.383Z,66.2
2022-09-05T18:13:12.307Z,66.1
2022-09-05T18:32:15.509Z,66.1
2022-09-05T18:39:08.440Z,65.9
2022-09-05T18:46:31.257Z,65.9
2022-09-05T18:54:03.743Z,65.8
2022-09-05T19:02:26.863Z,65.7
2022-09-05T19:09:43.505Z,65.6
2022-09-05T19:18:25.935Z,65.6
2022-09-05T19:26:26.728Z,65.4
2022-09-05T19:51:01.431Z,65.3
2022-09-05T19:57:03.971Z,65.2
2022-09-05T20:03:30.492Z,65.1
2022-09-05T20:09:27.792Z,65.1
2022-09-05T20:15:38.315Z,65
2022-09-05T20:21:24.270Z,64.9
2022-09-05T20:27:44.128Z,64.9
2022-09-05T20:34:02.924Z,64.8
2022-09-05T20:57:34.102Z,64.6
2022-09-05T21:04:02.084Z,64.6
2022-09-05T21:10:04.010Z,64.5
2022-09-05T21:16:41.888Z,64.4
2022-09-05T21:22:56.877Z,64.4
2022-09-05T21:28:57.679Z,64.3
2022-09-05T21:35:50.873Z,64.3
2022-09-05T21:42:18.599Z,64.2
2022-09-05T22:00:03.908Z,64.1
